createdAt,value
2018-03-27T00:00:34.981Z,39.10
2018-03-27T00:01:34.847Z,37.40
2018-03-27T00:02:34.720Z,41.00
2018-03-27T00:03:34.588Z,38.80
2018-03-27T00:04:34.463Z,37.90
2018-03-27T00:05:34.328Z,41.60
2018-03-27T00:06:34.194Z,37.10
2018-03-27T00:07:34.064Z,37.10
2018-03-27T00:08:33.931Z,37.70
2018-03-27T00:09:33.803Z,38.80
2018-03-27T00:10:33.671Z,41.00
2018-03-27T00:11:33.540Z,39.00
2018-03-27T00:12:33.407Z,40.60
2018-03-27T00:13:33.280Z,42.30
2018-03-27T00:14:33.151Z,43.10
2018-03-27T00:15:33.017Z,39.70
2018-03-27T00:16:32.883Z,42.00
2018-03-27T00:17:32.751Z,43.80
2018-03-27T00:18:32.623Z,40.60
2018-03-27T00:19:32.490Z,40.00
2018-03-27T00:20:32.363Z,42.00
2018-03-27T00:21:32.227Z,40.40
2018-03-27T00:22:32.096Z,41.80
2018-03-27T00:23:31.965Z,43.40
2018-03-27T00:24:31.836Z,46.70
2018-03-27T00:25:31.703Z,46.00
2018-03-27T00:26:31.572Z,45.40
2018-03-27T00:27:31.440Z,48.90
2018-03-27T00:28:31.310Z,47.20
2018-03-27T00:29:31.177Z,47.50
2018-03-27T00:30:31.046Z,48.20
2018-03-27T00:31:30.916Z,48.40
2018-03-27T00:32:30.782Z,46.10
2018-03-27T00:33:30.653Z,44.00
2018-03-27T00:34:30.521Z,49.70
2018-03-27T00:35:30.389Z,51.50
2018-03-27T00:36:30.256Z,54.30
2018-03-27T00:37:30.126Z,49.40
2018-03-27T00:38:29.998Z,50.40
2018-03-27T00:39:29.863Z,53.30
2018-03-27T00:40:29.731Z,54.80
2018-03-27T00:41:29.599Z,55.60
2018-03-27T00:42:29.468Z,54.10
2018-03-27T00:43:29.337Z,57.80
2018-03-27T00:44:29.205Z,57.20
2018-03-27T00:45:29.073Z,54.30
2018-03-27T00:46:28.940Z,55.50
2018-03-27T00:47:28.810Z,56.90
2018-03-27T00:48:28.677Z,55.30
2018-03-27T00:49:28.544Z,53.70
2018-03-27T00:50:28.417Z,52.70
2018-03-27T00:51:28.286Z,50.60
2018-03-27T00:52:28.153Z,49.50
2018-03-27T00:53:28.021Z,48.90
2018-03-27T00:54:27.899Z,46.90
2018-03-27T00:55:27.762Z,48.60
2018-03-27T00:56:27.629Z,47.00
2018-03-27T00:57:27.498Z,46.50
2018-03-27T00:58:27.368Z,46.40
2018-03-27T00:59:27.238Z,43.20
2018-03-27T01:00:27.106Z,44.60
2018-03-27T01:01:26.972Z,43.70
2018-03-27T01:02:26.851Z,40.50
2018-03-27T01:03:26.711Z,38.90
2018-03-27T01:04:26.581Z,35.10
2018-03-27T01:05:26.447Z,36.60
2018-03-27T01:06:26.318Z,34.10
2018-03-27T01:07:26.186Z,34.70
2018-03-27T01:08:26.053Z,35.40
2018-03-27T01:09:25.922Z,36.60
2018-03-27T01:10:25.795Z,36.60
2018-03-27T01:11:25.660Z,39.50
2018-03-27T01:12:25.528Z,37.30
2018-03-27T01:13:25.398Z,38.30
2018-03-27T01:14:25.267Z,38.30
2018-03-27T01:15:25.135Z,39.90
2018-03-27T01:16:25.003Z,37.10
2018-03-27T01:17:24.877Z,35.70
2018-03-27T01:18:24.743Z,38.50
2018-03-27T01:19:24.614Z,38.90
2018-03-27T01:20:24.478Z,38.50
2018-03-27T01:21:24.346Z,36.30
2018-03-27T01:22:24.220Z,37.00
2018-03-27T01:23:24.088Z,36.90
2018-03-27T01:24:23.956Z,34.00
2018-03-27T01:25:23.835Z,36.40
2018-03-27T01:26:23.695Z,36.80
2018-03-27T01:27:23.565Z,34.40
2018-03-27T01:28:23.430Z,37.80
2018-03-27T01:29:23.298Z,38.20
2018-03-27T01:30:23.169Z,43.90
2018-03-27T01:31:23.040Z,54.70
2018-03-27T01:32:22.911Z,101.90
2018-03-27T01:33:22.773Z,137.30
2018-03-27T01:34:22.642Z,154.90
2018-03-27T01:35:22.512Z,209.10
2018-03-27T01:36:22.379Z,210.80
2018-03-27T01:37:22.248Z,148.90
2018-03-27T01:38:22.116Z,255.30
2018-03-27T01:39:21.985Z,306.70
2018-03-27T01:40:21.855Z,230.30
2018-03-27T01:41:21.723Z,111.40
2018-03-27T01:42:21.591Z,108.10
2018-03-27T01:43:21.459Z,112.30
2018-03-27T01:44:21.326Z,202.00
2018-03-27T01:45:21.195Z,273.80
2018-03-27T01:46:21.066Z,238.40
2018-03-27T01:47:20.937Z,239.20
2018-03-27T01:48:20.801Z,257.60
2018-03-27T01:49:20.667Z,171.60
2018-03-27T01:50:20.537Z,145.80
2018-03-27T01:51:20.407Z,221.00
2018-03-27T01:52:20.270Z,139.50
2018-03-27T01:53:20.142Z,136.80
2018-03-27T01:54:20.011Z,104.70
2018-03-27T01:55:19.883Z,89.10
2018-03-27T01:56:19.745Z,96.90
2018-03-27T01:57:19.615Z,93.10
2018-03-27T01:58:19.486Z,87.20
2018-03-27T01:59:19.350Z,77.60
2018-03-27T02:00:19.217Z,79.20
2018-03-27T02:01:19.088Z,68.20
2018-03-27T02:02:19.012Z,66.00
2018-03-27T02:03:18.823Z,70.10
2018-03-27T02:04:18.691Z,69.20
2018-03-27T02:05:18.561Z,66.60
2018-03-27T02:06:18.430Z,68.20
2018-03-27T02:07:18.298Z,62.40
2018-03-27T02:08:18.166Z,60.40
2018-03-27T02:09:18.033Z,57.30
2018-03-27T02:10:17.903Z,57.80
2018-03-27T02:11:17.772Z,59.20
2018-03-27T02:12:17.637Z,62.80
2018-03-27T02:13:17.508Z,57.20
2018-03-27T02:14:17.376Z,59.40
2018-03-27T02:15:17.247Z,54.50
2018-03-27T02:16:17.113Z,63.10
2018-03-27T02:17:16.980Z,62.10
2018-03-27T02:18:16.850Z,68.00
2018-03-27T02:19:16.717Z,98.20
2018-03-27T02:20:16.585Z,101.40
2018-03-27T02:21:16.455Z,126.40
2018-03-27T02:22:16.325Z,119.70
2018-03-27T02:23:16.191Z,96.70
2018-03-27T02:24:16.059Z,87.80
2018-03-27T02:25:15.927Z,84.20
2018-03-27T02:26:15.794Z,84.00
2018-03-27T02:27:15.663Z,86.30
2018-03-27T02:28:15.534Z,84.00
2018-03-27T02:29:15.401Z,82.40
2018-03-27T02:30:15.270Z,123.70
2018-03-27T02:31:15.139Z,69.00
2018-03-27T02:32:15.005Z,81.90
2018-03-27T02:33:14.875Z,60.90
2018-03-27T02:34:14.744Z,64.30
2018-03-27T02:35:14.610Z,61.70
2018-03-27T02:36:14.483Z,58.90
2018-03-27T02:37:14.349Z,56.90
2018-03-27T02:38:14.216Z,56.00
2018-03-27T02:39:14.084Z,53.40
2018-03-27T02:40:13.951Z,56.30
2018-03-27T02:41:13.823Z,56.70
2018-03-27T02:42:13.698Z,59.40
2018-03-27T02:43:13.558Z,62.70
2018-03-27T02:44:13.427Z,68.30
2018-03-27T02:45:13.295Z,66.50
2018-03-27T02:46:13.163Z,71.20
2018-03-27T02:47:13.032Z,70.80
2018-03-27T02:48:12.899Z,79.50
2018-03-27T02:49:12.770Z,358.40
2018-03-27T02:50:12.638Z,304.00
2018-03-27T02:51:12.506Z,182.80
2018-03-27T02:52:12.374Z,157.70
2018-03-27T02:53:12.244Z,99.20
2018-03-27T02:54:12.124Z,95.80
2018-03-27T02:55:11.982Z,88.00
2018-03-27T02:56:11.846Z,85.00
2018-03-27T02:57:11.717Z,78.90
2018-03-27T02:58:11.583Z,84.80
2018-03-27T02:59:11.453Z,84.00
2018-03-27T03:00:11.320Z,88.40
2018-03-27T03:01:11.188Z,102.40
2018-03-27T03:02:11.056Z,98.30
2018-03-27T03:03:10.924Z,112.10
2018-03-27T03:04:10.791Z,102.70
2018-03-27T03:05:10.659Z,98.10
2018-03-27T03:06:10.529Z,101.00
2018-03-27T03:07:10.398Z,94.30
2018-03-27T03:08:10.265Z,87.80
2018-03-27T03:09:10.135Z,88.80
2018-03-27T03:10:10.000Z,99.20
2018-03-27T03:11:09.868Z,91.30
2018-03-27T03:12:09.736Z,84.50
2018-03-27T03:13:09.604Z,86.20
2018-03-27T03:14:09.475Z,96.50
2018-03-27T03:15:09.342Z,101.90
2018-03-27T03:16:09.207Z,95.10
2018-03-27T03:17:09.081Z,182.20
2018-03-27T03:18:08.942Z,99.90
2018-03-27T03:19:08.837Z,91.60
2018-03-27T03:20:08.679Z,87.50
2018-03-27T03:21:08.549Z,79.10
2018-03-27T03:22:08.417Z,69.50
2018-03-27T03:23:08.285Z,63.10
2018-03-27T03:24:08.152Z,51.10
2018-03-27T03:25:08.022Z,48.10
2018-03-27T03:26:07.887Z,50.60
2018-03-27T03:27:07.758Z,51.30
2018-03-27T03:28:07.627Z,62.30
2018-03-27T03:29:07.494Z,56.90
2018-03-27T03:30:07.365Z,44.00
2018-03-27T03:31:07.234Z,37.30
2018-03-27T03:32:07.098Z,34.50
2018-03-27T03:33:06.965Z,37.30
2018-03-27T03:34:06.836Z,35.00
2018-03-27T03:35:06.703Z,36.90
2018-03-27T03:36:06.575Z,37.90
2018-03-27T03:37:06.437Z,37.10
2018-03-27T03:38:06.306Z,38.10
2018-03-27T03:39:06.175Z,36.90
2018-03-27T03:40:06.042Z,37.00
2018-03-27T03:41:05.910Z,37.70
2018-03-27T03:42:05.778Z,34.30
2018-03-27T03:43:05.648Z,34.70
2018-03-27T03:44:05.515Z,36.20
2018-03-27T03:45:05.385Z,36.70
2018-03-27T03:46:05.255Z,36.30
2018-03-27T03:47:05.126Z,38.60
2018-03-27T03:48:04.990Z,36.70
2018-03-27T03:49:04.868Z,36.80
2018-03-27T03:50:04.725Z,39.00
2018-03-27T03:51:04.593Z,38.40
2018-03-27T03:52:04.462Z,39.70
2018-03-27T03:53:04.400Z,35.80
2018-03-27T03:54:04.198Z,37.30
2018-03-27T03:55:04.066Z,39.20
2018-03-27T03:56:03.936Z,37.50
2018-03-27T03:57:03.808Z,39.20
2018-03-27T03:58:03.675Z,39.40
2018-03-27T03:59:03.541Z,38.90
2018-03-27T04:00:03.407Z,38.90
2018-03-27T04:01:03.276Z,42.10
2018-03-27T04:02:03.145Z,38.20
2018-03-27T04:03:03.015Z,38.00
2018-03-27T04:04:02.882Z,38.30
2018-03-27T04:05:02.751Z,36.80
2018-03-27T04:06:02.622Z,38.60
2018-03-27T04:07:02.489Z,37.50
2018-03-27T04:08:02.353Z,34.00
2018-03-27T04:09:02.229Z,34.80
2018-03-27T04:10:02.089Z,36.70
2018-03-27T04:11:01.961Z,35.70
2018-03-27T04:12:01.828Z,36.40
2018-03-27T04:13:01.694Z,33.30
2018-03-27T04:14:01.563Z,33.60
2018-03-27T04:15:01.432Z,32.90
2018-03-27T04:16:01.298Z,32.70
2018-03-27T04:17:01.169Z,31.80
2018-03-27T04:18:01.039Z,31.40
2018-03-27T04:19:00.904Z,32.40
2018-03-27T04:20:00.771Z,32.70
2018-03-27T04:21:00.640Z,31.80
2018-03-27T04:22:00.548Z,31.50
2018-03-27T04:23:00.378Z,29.30
2018-03-27T04:24:00.245Z,29.50
2018-03-27T04:25:00.115Z,29.90
2018-03-27T04:26:00.169Z,29.60
2018-03-27T04:27:00.658Z,33.80
2018-03-27T04:28:01.830Z,43.70
2018-03-27T04:28:59.584Z,50.30
2018-03-27T04:29:59.463Z,46.60
2018-03-27T04:30:59.393Z,45.00
2018-03-27T04:31:59.190Z,46.20
2018-03-27T04:32:59.058Z,54.90
2018-03-27T04:33:58.932Z,57.80
2018-03-27T04:34:59.370Z,55.50
2018-03-27T04:35:58.666Z,57.40
2018-03-27T04:36:58.532Z,58.90
2018-03-27T04:37:58.408Z,58.00
2018-03-27T04:38:58.306Z,55.90
2018-03-27T04:39:58.134Z,56.80
2018-03-27T04:40:58.004Z,46.70
2018-03-27T04:41:57.875Z,43.10
2018-03-27T04:42:57.745Z,39.80
2018-03-27T04:43:57.608Z,36.50
2018-03-27T04:44:57.485Z,33.30
2018-03-27T04:45:57.346Z,35.00
2018-03-27T04:46:57.217Z,33.40
2018-03-27T04:47:57.085Z,35.30
2018-03-27T04:48:56.951Z,35.50
2018-03-27T04:49:56.819Z,33.90
2018-03-27T04:50:56.689Z,33.70
2018-03-27T04:51:56.556Z,29.50
2018-03-27T04:52:56.426Z,33.60
2018-03-27T04:53:56.294Z,37.70
2018-03-27T04:54:56.163Z,38.60
2018-03-27T04:55:56.030Z,42.80
2018-03-27T04:56:55.898Z,48.30
2018-03-27T04:57:55.769Z,48.10
2018-03-27T04:58:55.636Z,49.50
2018-03-27T04:59:55.504Z,52.10
2018-03-27T05:00:55.374Z,53.90
2018-03-27T05:01:55.241Z,54.40
2018-03-27T05:02:55.109Z,57.90
2018-03-27T05:03:54.975Z,56.20
2018-03-27T05:04:54.846Z,58.20
2018-03-27T05:05:54.714Z,59.60
2018-03-27T05:06:54.583Z,56.30
2018-03-27T05:07:54.448Z,55.50
2018-03-27T05:08:54.319Z,51.90
2018-03-27T05:09:54.186Z,48.10
2018-03-27T05:10:54.054Z,49.60
2018-03-27T05:11:53.924Z,46.60
2018-03-27T05:12:53.795Z,48.70
2018-03-27T05:13:53.659Z,47.90
2018-03-27T05:14:53.531Z,45.80
2018-03-27T05:15:53.394Z,45.60
2018-03-27T05:16:53.270Z,47.60
2018-03-27T05:17:53.135Z,49.20
2018-03-27T05:18:53.015Z,50.90
2018-03-27T05:19:52.870Z,49.70
2018-03-27T05:20:52.738Z,51.20
2018-03-27T05:21:52.611Z,64.20
2018-03-27T05:22:52.481Z,53.70
2018-03-27T05:23:52.344Z,53.60
2018-03-27T05:24:52.214Z,47.30
2018-03-27T05:25:52.082Z,44.20
2018-03-27T05:26:51.952Z,41.00
2018-03-27T05:27:51.819Z,43.00
2018-03-27T05:28:51.693Z,45.60
2018-03-27T05:29:51.605Z,44.70
2018-03-27T05:30:51.425Z,45.20
2018-03-27T05:31:51.291Z,48.40
2018-03-27T05:32:51.213Z,50.30
2018-03-27T05:33:51.032Z,51.00
2018-03-27T05:34:50.901Z,55.20
2018-03-27T05:35:50.768Z,56.50
2018-03-27T05:36:50.642Z,54.70
2018-03-27T05:37:50.541Z,56.30
2018-03-27T05:38:50.373Z,53.20
2018-03-27T05:39:50.244Z,54.70
2018-03-27T05:40:50.114Z,54.60
2018-03-27T05:41:49.977Z,53.20
2018-03-27T05:42:49.848Z,54.40
2018-03-27T05:43:49.716Z,50.00
2018-03-27T05:44:49.582Z,53.10
2018-03-27T05:45:49.453Z,53.70
2018-03-27T05:46:49.321Z,54.80
2018-03-27T05:47:49.196Z,53.40
2018-03-27T05:48:49.057Z,50.60
2018-03-27T05:49:48.922Z,51.90
2018-03-27T05:50:48.792Z,48.20
2018-03-27T05:51:48.692Z,47.00
2018-03-27T05:52:48.527Z,48.70
2018-03-27T05:53:48.401Z,46.50
2018-03-27T05:54:48.267Z,42.70
2018-03-27T05:55:48.136Z,43.90
2018-03-27T05:56:48.001Z,43.60
2018-03-27T05:57:47.872Z,44.60
2018-03-27T05:58:47.741Z,42.20
2018-03-27T05:59:47.623Z,43.10
2018-03-27T06:00:47.475Z,42.90
2018-03-27T06:01:47.342Z,44.60
2018-03-27T06:02:47.214Z,45.20
2018-03-27T06:03:47.080Z,39.60
2018-03-27T06:04:46.953Z,39.50
2018-03-27T06:05:46.817Z,41.50
2018-03-27T06:06:46.689Z,44.60
2018-03-27T06:07:46.553Z,49.50
2018-03-27T06:08:46.425Z,43.60
2018-03-27T06:09:46.291Z,45.60
2018-03-27T06:10:46.158Z,46.50
2018-03-27T06:11:46.027Z,53.10
2018-03-27T06:12:45.893Z,49.80
2018-03-27T06:13:45.763Z,50.90
2018-03-27T06:14:45.635Z,54.00
2018-03-27T06:15:45.497Z,52.30
2018-03-27T06:16:45.364Z,52.50
2018-03-27T06:17:45.241Z,54.50
2018-03-27T06:18:45.815Z,55.30
2018-03-27T06:19:44.969Z,62.90
2018-03-27T06:20:44.837Z,61.30
2018-03-27T06:21:44.704Z,60.70
2018-03-27T06:22:44.572Z,64.00
2018-03-27T06:23:44.439Z,64.00
2018-03-27T06:24:44.308Z,58.20
2018-03-27T06:25:44.179Z,60.50
2018-03-27T06:26:44.046Z,65.70
2018-03-27T06:27:43.935Z,60.50
2018-03-27T06:28:43.780Z,97.90
2018-03-27T06:29:43.646Z,68.80
2018-03-27T06:30:43.517Z,64.40
2018-03-27T06:31:43.392Z,67.70
2018-03-27T06:32:43.253Z,68.00
2018-03-27T06:33:43.121Z,61.50
2018-03-27T06:34:42.990Z,55.20
2018-03-27T06:35:42.856Z,50.90
2018-03-27T06:36:42.726Z,50.00
2018-03-27T06:37:42.594Z,48.80
2018-03-27T06:38:42.463Z,50.40
2018-03-27T06:39:42.329Z,47.30
2018-03-27T06:40:42.201Z,44.60
2018-03-27T06:41:42.067Z,46.80
2018-03-27T06:42:41.937Z,51.40
2018-03-27T06:43:41.804Z,60.90
2018-03-27T06:44:41.673Z,64.00
2018-03-27T06:45:41.546Z,62.50
2018-03-27T06:46:41.475Z,50.00
2018-03-27T06:47:41.294Z,51.70
2018-03-27T06:48:41.147Z,46.20
2018-03-27T06:49:41.018Z,47.80
2018-03-27T06:50:40.885Z,98.90
2018-03-27T06:51:40.751Z,55.70
2018-03-27T06:52:40.622Z,75.00
2018-03-27T06:53:40.491Z,68.40
2018-03-27T06:54:40.358Z,73.20
2018-03-27T06:55:40.229Z,145.70
2018-03-27T06:56:40.099Z,93.00
2018-03-27T06:57:39.965Z,90.70
2018-03-27T06:58:39.832Z,74.00
2018-03-27T06:59:39.701Z,61.30
2018-03-27T07:00:40.323Z,79.80
2018-03-27T07:01:39.472Z,53.20
2018-03-27T07:02:39.340Z,52.40
2018-03-27T07:03:39.214Z,50.30
2018-03-27T07:04:39.046Z,61.80
2018-03-27T07:05:39.000Z,105.50
2018-03-27T07:06:38.808Z,168.90
2018-03-27T07:07:38.651Z,132.00
2018-03-27T07:08:38.524Z,120.40
2018-03-27T07:09:38.385Z,102.70
2018-03-27T07:10:38.338Z,88.20
2018-03-27T07:11:38.130Z,78.00
2018-03-27T07:12:37.992Z,57.00
2018-03-27T07:13:37.874Z,68.20
2018-03-27T07:14:37.726Z,55.50
2018-03-27T07:15:37.593Z,55.80
2018-03-27T07:16:37.512Z,50.00
2018-03-27T07:17:37.368Z,49.30
2018-03-27T07:18:37.200Z,45.60
2018-03-27T07:19:37.068Z,44.50
2018-03-27T07:20:36.966Z,44.70
2018-03-27T07:21:36.807Z,44.00
2018-03-27T07:22:36.670Z,44.80
2018-03-27T07:23:36.540Z,45.50
2018-03-27T07:24:36.406Z,43.10
2018-03-27T07:25:36.279Z,43.70
2018-03-27T07:26:36.143Z,41.10
2018-03-27T07:27:36.013Z,41.40
2018-03-27T07:28:35.880Z,40.00
2018-03-27T07:29:35.749Z,38.10
2018-03-27T07:30:35.618Z,37.50
2018-03-27T07:31:35.485Z,37.20
2018-03-27T07:32:35.355Z,39.20
2018-03-27T07:33:35.225Z,36.40
2018-03-27T07:34:35.091Z,36.80
2018-03-27T07:35:34.960Z,38.00
2018-03-27T07:36:34.836Z,39.20
2018-03-27T07:37:34.702Z,38.10
2018-03-27T07:38:34.568Z,35.60
2018-03-27T07:39:34.434Z,42.30
2018-03-27T07:40:34.308Z,45.90
2018-03-27T07:41:34.173Z,44.10
2018-03-27T07:42:34.060Z,44.20
2018-03-27T07:43:33.910Z,44.80
2018-03-27T07:44:33.779Z,50.10
2018-03-27T07:45:33.647Z,48.40
2018-03-27T07:46:33.516Z,62.70
2018-03-27T07:47:33.385Z,48.00
2018-03-27T07:48:33.257Z,50.90
2018-03-27T07:49:33.137Z,51.40
2018-03-27T07:50:32.990Z,50.40
2018-03-27T07:51:32.856Z,46.80
2018-03-27T07:52:32.727Z,52.00
2018-03-27T07:53:32.605Z,48.80
2018-03-27T07:54:32.476Z,50.50
2018-03-27T07:55:32.331Z,47.50
2018-03-27T07:56:32.204Z,50.40
2018-03-27T07:57:32.071Z,49.30
2018-03-27T07:58:31.945Z,45.50
2018-03-27T07:59:31.808Z,49.30
2018-03-27T08:00:31.677Z,47.40
2018-03-27T08:01:31.546Z,47.30
2018-03-27T08:02:31.414Z,72.00
2018-03-27T08:03:31.336Z,51.50
2018-03-27T08:04:31.153Z,53.00
2018-03-27T08:05:31.022Z,85.60
2018-03-27T08:06:30.889Z,78.30
2018-03-27T08:07:30.760Z,58.90
2018-03-27T08:08:30.627Z,82.70
2018-03-27T08:09:30.496Z,66.50
2018-03-27T08:10:30.362Z,62.90
2018-03-27T08:11:30.231Z,70.60
2018-03-27T08:12:30.100Z,101.60
2018-03-27T08:13:29.970Z,70.30
2018-03-27T08:14:29.839Z,55.90
2018-03-27T08:15:29.708Z,62.60
2018-03-27T08:16:29.575Z,58.10
2018-03-27T08:17:29.443Z,57.40
2018-03-27T08:18:29.361Z,57.00
2018-03-27T08:19:29.184Z,58.40
2018-03-27T08:20:29.048Z,53.60
2018-03-27T08:21:28.920Z,51.90
2018-03-27T08:22:28.788Z,51.10
2018-03-27T08:23:28.657Z,50.00
2018-03-27T08:24:28.581Z,49.40
2018-03-27T08:25:28.391Z,46.00
2018-03-27T08:26:28.259Z,44.70
2018-03-27T08:27:28.189Z,46.60
2018-03-27T08:28:27.999Z,46.10
2018-03-27T08:29:27.867Z,45.60
2018-03-27T08:30:27.737Z,46.90
2018-03-27T08:31:27.602Z,60.50
2018-03-27T08:32:27.475Z,72.00
2018-03-27T08:33:27.341Z,55.40
2018-03-27T08:34:27.211Z,50.20
2018-03-27T08:35:27.077Z,48.20
2018-03-27T08:36:26.956Z,49.60
2018-03-27T08:37:26.817Z,46.50
2018-03-27T08:38:26.684Z,47.70
2018-03-27T08:39:26.552Z,41.30
2018-03-27T08:40:26.421Z,40.50
2018-03-27T08:41:26.290Z,42.00
2018-03-27T08:42:26.158Z,44.20
2018-03-27T08:43:26.079Z,43.70
2018-03-27T08:44:25.893Z,42.30
2018-03-27T08:45:25.764Z,43.20
2018-03-27T08:46:25.632Z,43.80
2018-03-27T08:47:25.497Z,43.30
2018-03-27T08:48:25.366Z,41.10
2018-03-27T08:49:25.239Z,45.40
2018-03-27T08:50:25.107Z,41.70
2018-03-27T08:51:24.973Z,39.60
2018-03-27T08:52:24.842Z,41.80
2018-03-27T08:53:24.712Z,45.10
2018-03-27T08:54:24.582Z,38.30
2018-03-27T08:55:24.450Z,39.40
2018-03-27T08:56:24.316Z,40.90
2018-03-27T08:57:24.187Z,38.60
2018-03-27T08:58:24.057Z,41.80
2018-03-27T08:59:23.924Z,41.70
2018-03-27T09:00:23.794Z,42.90
2018-03-27T09:01:23.665Z,40.30
2018-03-27T09:02:23.531Z,39.70
2018-03-27T09:03:23.400Z,37.50
2018-03-27T09:04:23.268Z,38.90
2018-03-27T09:05:23.180Z,37.00
2018-03-27T09:06:23.009Z,31.50
2018-03-27T09:07:22.881Z,33.50
2018-03-27T09:08:22.744Z,34.50
2018-03-27T09:09:22.617Z,32.80
2018-03-27T09:10:22.486Z,30.50
2018-03-27T09:11:22.353Z,32.90
2018-03-27T09:12:22.226Z,33.30
2018-03-27T09:13:22.096Z,34.40
2018-03-27T09:14:21.965Z,33.70
2018-03-27T09:15:21.833Z,34.00
2018-03-27T09:16:21.702Z,31.00
2018-03-27T09:17:21.574Z,30.60
2018-03-27T09:18:21.444Z,30.20
2018-03-27T09:19:21.314Z,33.00
2018-03-27T09:20:21.184Z,32.80
2018-03-27T09:21:21.052Z,32.30
2018-03-27T09:22:20.924Z,33.10
2018-03-27T09:23:20.823Z,33.50
2018-03-27T09:24:20.661Z,34.80
2018-03-27T09:25:20.534Z,35.30
2018-03-27T09:26:20.405Z,36.80
2018-03-27T09:27:20.275Z,35.00
2018-03-27T09:28:20.141Z,34.30
2018-03-27T09:29:20.015Z,35.80
2018-03-27T09:30:19.880Z,32.20
2018-03-27T09:31:19.753Z,33.20
2018-03-27T09:32:19.623Z,30.80
2018-03-27T09:33:19.493Z,33.70
2018-03-27T09:34:19.365Z,30.40
2018-03-27T09:35:19.231Z,28.20
2018-03-27T09:36:19.101Z,30.30
2018-03-27T09:37:18.973Z,30.80
2018-03-27T09:38:18.843Z,31.60
2018-03-27T09:39:18.711Z,28.10
2018-03-27T09:40:18.592Z,26.70
2018-03-27T09:41:18.453Z,28.30
2018-03-27T09:42:18.323Z,27.70
2018-03-27T09:43:18.196Z,26.30
2018-03-27T09:44:18.067Z,25.90
2018-03-27T09:45:17.935Z,26.60
2018-03-27T09:46:17.805Z,27.80
2018-03-27T09:47:17.677Z,26.20
2018-03-27T09:48:17.546Z,26.40
2018-03-27T09:49:17.418Z,25.10
2018-03-27T09:50:17.290Z,24.60
2018-03-27T09:51:17.159Z,26.60
2018-03-27T09:52:17.034Z,26.10
2018-03-27T09:53:16.901Z,24.80
2018-03-27T09:54:16.817Z,27.10
2018-03-27T09:55:16.646Z,25.40
2018-03-27T09:56:16.520Z,25.30
2018-03-27T09:57:16.390Z,25.00
2018-03-27T09:58:16.262Z,24.20
2018-03-27T09:59:16.134Z,22.00
2018-03-27T10:00:16.007Z,23.40
2018-03-27T10:01:15.880Z,24.40
2018-03-27T10:02:15.761Z,22.50
2018-03-27T10:03:15.622Z,22.70
2018-03-27T10:04:15.497Z,24.50
2018-03-27T10:05:15.369Z,22.10
2018-03-27T10:06:15.243Z,22.90
2018-03-27T10:07:15.114Z,22.00
2018-03-27T10:08:14.988Z,22.40
2018-03-27T10:09:14.859Z,22.50
2018-03-27T10:10:14.735Z,22.00
2018-03-27T10:11:14.606Z,21.70
2018-03-27T10:12:14.480Z,24.60
2018-03-27T10:13:14.354Z,24.20
2018-03-27T10:14:14.225Z,21.40
2018-03-27T10:15:14.096Z,23.30
2018-03-27T10:16:13.971Z,22.10
2018-03-27T10:17:13.843Z,22.10
2018-03-27T10:18:13.718Z,23.10
2018-03-27T10:19:13.589Z,21.30
2018-03-27T10:20:13.462Z,19.80
2018-03-27T10:21:13.335Z,19.40
2018-03-27T10:22:13.222Z,20.40
2018-03-27T10:23:13.082Z,21.80
2018-03-27T10:24:12.957Z,22.60
2018-03-27T10:25:12.830Z,23.90
2018-03-27T10:26:12.704Z,21.40
2018-03-27T10:27:12.576Z,20.80
2018-03-27T10:28:12.452Z,21.60
2018-03-27T10:29:12.324Z,21.30
2018-03-27T10:30:12.198Z,21.10
2018-03-27T10:31:12.071Z,19.20
2018-03-27T10:32:11.943Z,18.60
2018-03-27T10:33:11.824Z,18.00
2018-03-27T10:34:11.693Z,19.00
2018-03-27T10:35:11.567Z,14.60
2018-03-27T10:36:11.438Z,15.40
2018-03-27T10:37:11.315Z,15.20
2018-03-27T10:38:11.191Z,17.20
2018-03-27T10:39:11.065Z,17.70
2018-03-27T10:40:10.940Z,15.50
2018-03-27T10:41:10.815Z,15.80
2018-03-27T10:42:10.692Z,17.70
2018-03-27T10:43:10.564Z,18.20
2018-03-27T10:44:10.439Z,16.40
2018-03-27T10:45:11.280Z,18.30
2018-03-27T10:46:10.779Z,17.70
2018-03-27T10:47:10.072Z,17.40
2018-03-27T10:48:09.952Z,18.30
2018-03-27T10:49:10.779Z,17.90
2018-03-27T10:50:09.685Z,18.70
2018-03-27T10:51:09.559Z,17.80
2018-03-27T10:52:09.435Z,17.70
2018-03-27T10:53:09.327Z,18.50
2018-03-27T10:54:09.181Z,18.60
2018-03-27T10:55:09.055Z,17.90
2018-03-27T10:56:08.929Z,19.70
2018-03-27T10:57:08.806Z,19.10
2018-03-27T10:58:08.676Z,19.30
2018-03-27T10:59:08.553Z,17.20
2018-03-27T11:00:08.423Z,17.70
2018-03-27T11:01:08.296Z,16.30
2018-03-27T11:02:08.169Z,15.90
2018-03-27T11:03:08.044Z,12.90
2018-03-27T11:04:07.916Z,13.30
2018-03-27T11:05:07.790Z,13.10
2018-03-27T11:06:07.663Z,12.60
2018-03-27T11:07:07.537Z,13.50
2018-03-27T11:08:07.409Z,14.90
2018-03-27T11:09:07.279Z,16.90
2018-03-27T11:10:07.155Z,16.70
2018-03-27T11:11:07.028Z,16.40
2018-03-27T11:12:06.900Z,15.00
2018-03-27T11:13:06.771Z,13.70
2018-03-27T11:14:06.643Z,14.40
2018-03-27T11:15:06.519Z,15.10
2018-03-27T11:16:06.393Z,16.00
2018-03-27T11:17:06.260Z,15.90
2018-03-27T11:18:06.133Z,14.60
2018-03-27T11:19:06.004Z,16.60
2018-03-27T11:20:05.878Z,15.80
2018-03-27T11:21:05.753Z,15.50
2018-03-27T11:22:05.729Z,15.40
2018-03-27T11:23:05.492Z,14.70
2018-03-27T11:24:05.391Z,16.70
2018-03-27T11:25:05.240Z,15.10
2018-03-27T11:26:05.109Z,16.10
2018-03-27T11:27:04.983Z,15.60
2018-03-27T11:28:04.856Z,15.90
2018-03-27T11:29:04.727Z,15.60
2018-03-27T11:30:04.611Z,15.60
2018-03-27T11:31:04.471Z,14.50
2018-03-27T11:32:04.347Z,14.10
2018-03-27T11:33:04.248Z,15.30
2018-03-27T11:34:04.089Z,15.10
2018-03-27T11:35:03.965Z,17.30
2018-03-27T11:36:03.869Z,16.70
2018-03-27T11:37:03.706Z,15.70
2018-03-27T11:38:03.574Z,16.80
2018-03-27T11:39:03.446Z,16.00
2018-03-27T11:40:03.417Z,13.20
2018-03-27T11:41:03.192Z,15.70
2018-03-27T11:42:03.069Z,14.80
2018-03-27T11:43:02.938Z,14.30
2018-03-27T11:44:02.811Z,14.40
2018-03-27T11:45:02.683Z,15.70
2018-03-27T11:46:02.554Z,15.30
2018-03-27T11:47:02.429Z,15.70
2018-03-27T11:48:02.310Z,16.30
2018-03-27T11:49:02.208Z,15.30
2018-03-27T11:50:02.048Z,16.30
2018-03-27T11:51:01.921Z,15.30
2018-03-27T11:52:01.801Z,16.30
2018-03-27T11:53:01.863Z,15.40
2018-03-27T11:54:01.540Z,14.50
2018-03-27T11:55:01.412Z,15.20
2018-03-27T11:56:01.317Z,15.00
2018-03-27T11:57:01.214Z,14.30
2018-03-27T11:58:01.031Z,13.50
2018-03-27T11:59:00.906Z,13.50
2018-03-27T12:00:00.777Z,13.90
2018-03-27T12:01:00.649Z,12.80
2018-03-27T12:02:00.523Z,13.50
2018-03-27T12:03:00.403Z,13.10
2018-03-27T12:04:00.271Z,14.80
2018-03-27T12:05:00.144Z,13.40
2018-03-27T12:06:00.020Z,12.70
2018-03-27T12:06:59.891Z,13.20
2018-03-27T12:07:59.765Z,12.70
2018-03-27T12:08:59.641Z,14.10
2018-03-27T12:09:59.687Z,10.00
2018-03-27T12:10:59.486Z,9.90
2018-03-27T12:11:59.263Z,10.10
2018-03-27T12:13:06.274Z,9.90
2018-03-27T12:15:06.904Z,8.70
2018-03-27T12:16:06.736Z,8.20
2018-03-27T12:17:59.865Z,8.60
2018-03-27T12:18:59.699Z,8.20
2018-03-27T12:20:52.350Z,8.40
2018-03-27T12:21:52.181Z,8.00
2018-03-27T12:23:45.689Z,8.60
2018-03-27T12:24:45.565Z,7.50
2018-03-27T12:26:38.261Z,8.20
2018-03-27T12:27:38.095Z,7.80
2018-03-27T12:29:30.764Z,8.90
2018-03-27T12:30:30.629Z,8.40
2018-03-27T12:32:24.367Z,7.60
2018-03-27T12:33:23.162Z,7.60
2018-03-27T12:35:15.824Z,8.10
2018-03-27T12:36:15.696Z,8.50
2018-03-27T12:38:08.396Z,7.50
2018-03-27T12:39:08.230Z,8.20
2018-03-27T12:41:00.903Z,6.90
2018-03-27T12:42:00.780Z,7.40
2018-03-27T12:43:53.474Z,7.40
2018-03-27T12:44:53.350Z,7.00
2018-03-27T12:46:46.011Z,9.30
2018-03-27T12:47:45.858Z,10.10
2018-03-27T12:49:38.518Z,7.20
2018-03-27T12:50:38.393Z,7.00
2018-03-27T12:52:31.104Z,6.70
2018-03-27T12:53:30.939Z,7.00
2018-03-27T12:55:24.452Z,7.10
2018-03-27T12:56:24.322Z,6.60
2018-03-27T12:58:17.871Z,6.20
2018-03-27T12:59:17.707Z,6.50
2018-03-27T13:01:10.368Z,6.60
2018-03-27T13:02:10.244Z,6.20
2018-03-27T13:04:02.939Z,5.90
2018-03-27T13:05:02.783Z,7.40
2018-03-27T13:07:08.263Z,6.80
2018-03-27T13:08:08.100Z,6.90